sensor_id;sensor_type;location;lat;lon;timestamp;pressure;altitude;pressure_sealevel;temperature;humidity
23164;BME280;31429;42.674;23.350;2023-07-13T00:00:19;95055.88;;;21.85;100.00
23164;BME280;31429;42.674;23.350;2023-07-13T00:01:19;95061.06;;;21.85;100.00
23164;BME280;31429;42.674;23.350;2023-07-13T00:02:21;95058.84;;;21.92;100.00
23164;BME280;31429;42.674;23.350;2023-07-13T00:03:22;95058.34;;;21.87;100.00
23164;BME280;31429;42.674;23.350;2023-07-13T00:04:24;95055.63;;;21.88;100.00
23164;BME280;31429;42.674;23.350;2023-07-13T00:05:25;95057.91;;;21.93;100.00
23164;BME280;31429;42.674;23.350;2023-07-13T00:06:27;95057.66;;;21.96;100.00
23164;BME280;31429;42.674;23.350;2023-07-13T00:07:33;95049.50;;;22.00;100.00
23164;BME280;31429;42.674;23.350;2023-07-13T00:08:34;95050.78;;;21.95;100.00
23164;BME280;31429;42.674;23.350;2023-07-13T00:09:35;95057.91;;;21.93;100.00
23164;BME280;31429;42.674;23.350;2023-07-13T00:10:39;95055.63;;;21.88;100.00
23164;BME280;31429;42.674;23.350;2023-07-13T00:11:40;95053.13;;;21.75;100.00
23164;BME280;31429;42.674;23.350;2023-07-13T00:12:41;95060.72;;;21.78;100.00
23164;BME280;31429;42.674;23.350;2023-07-13T00:13:43;95051.47;;;21.86;100.00
23164;BME280;31429;42.674;23.350;2023-07-13T00:14:45;95059.06;;;21.89;100.00
23164;BME280;31429;42.674;23.350;2023-07-13T00:15:46;95055.13;;;21.83;100.00
23164;BME280;31429;42.674;23.350;2023-07-13T00:16:47;95053.38;;;21.84;100.00
23164;BME280;31429;42.674;23.350;2023-07-13T00:17:47;95055.03;;;21.85;100.00
23164;BME280;31429;42.674;23.350;2023-07-13T00:18:48;95051.25;;;21.89;100.00
23164;BME280;31429;42.674;23.350;2023-07-13T00:21:09;95050.94;;;21.93;100.00
23164;BME280;31429;42.674;23.350;2023-07-13T00:22:09;95048.19;;;21.95;100.00
23164;BME280;31429;42.674;23.350;2023-07-13T00:23:10;95051.50;;;21.97;100.00
23164;BME280;31429;42.674;23.350;2023-07-13T00:24:12;95043.09;;;22.04;100.00
23164;BME280;31429;42.674;23.350;2023-07-13T00:25:14;95042.75;;;21.98;100.00
23164;BME280;31429;42.674;23.350;2023-07-13T00:26:14;95044.28;;;22.00;100.00
23164;BME280;31429;42.674;23.350;2023-07-13T00:27:15;95039.78;;;21.91;100.00
23164;BME280;31429;42.674;23.350;2023-07-13T00:28:16;95033.78;;;21.91;100.00
23164;BME280;31429;42.674;23.350;2023-07-13T00:29:16;95042.63;;;21.88;100.00
23164;BME280;31429;42.674;23.350;2023-07-13T00:30:18;95041.34;;;21.94;100.00
23164;BME280;31429;42.674;23.350;2023-07-13T00:31:19;95034.81;;;21.88;100.00
23164;BME280;31429;42.674;23.350;2023-07-13T00:32:20;95035.97;;;21.73;100.00
23164;BME280;31429;42.674;23.350;2023-07-13T00:33:21;95038.00;;;21.92;100.00
23164;BME280;31429;42.674;23.350;2023-07-13T00:34:23;95037.53;;;21.98;100.00
23164;BME280;31429;42.674;23.350;2023-07-13T00:35:25;95036.63;;;21.88;100.00
23164;BME280;31429;42.674;23.350;2023-07-13T00:36:26;95038.69;;;21.83;100.00
23164;BME280;31429;42.674;23.350;2023-07-13T00:37:27;95037.50;;;21.87;100.00
23164;BME280;31429;42.674;23.350;2023-07-13T00:38:27;95035.53;;;22.01;100.00
23164;BME280;31429;42.674;23.350;2023-07-13T00:39:28;95029.38;;;22.02;100.00
23164;BME280;31429;42.674;23.350;2023-07-13T00:40:28;95027.97;;;21.98;100.00
23164;BME280;31429;42.674;23.350;2023-07-13T00:41:29;95036.00;;;21.95;100.00
23164;BME280;31429;42.674;23.350;2023-07-13T00:42:30;95042.34;;;21.80;100.00
23164;BME280;31429;42.674;23.350;2023-07-13T00:43:30;95031.59;;;21.73;100.00
23164;BME280;31429;42.674;23.350;2023-07-13T00:44:31;95036.59;;;21.76;100.00
23164;BME280;31429;42.674;23.350;2023-07-13T00:47:11;95039.88;;;21.67;100.00
23164;BME280;31429;42.674;23.350;2023-07-13T00:48:14;95038.59;;;21.62;100.00
23164;BME280;31429;42.674;23.350;2023-07-13T00:49:19;95034.91;;;21.53;100.00
23164;BME280;31429;42.674;23.350;2023-07-13T00:50:21;95041.97;;;21.51;100.00
23164;BME280;31429;42.674;23.350;2023-07-13T00:51:26;95041.50;;;21.46;100.00
23164;BME280;31429;42.674;23.350;2023-07-13T00:52:28;95043.78;;;21.62;100.00
23164;BME280;31429;42.674;23.350;2023-07-13T00:53:31;95046.41;;;21.84;100.00
23164;BME280;31429;42.674;23.350;2023-07-13T00:54:35;95045.22;;;21.88;100.00
23164;BME280;31429;42.674;23.350;2023-07-13T00:55:37;95035.50;;;21.79;100.00
23164;BME280;31429;42.674;23.350;2023-07-13T00:56:39;95035.50;;;21.68;100.00
23164;BME280;31429;42.674;23.350;2023-07-13T00:57:41;95042.59;;;21.66;100.00
23164;BME280;31429;42.674;23.350;2023-07-13T00:58:42;95029.09;;;21.50;100.00
23164;BME280;31429;42.674;23.350;2023-07-13T00:59:49;95035.69;;;21.43;100.00
23164;BME280;31429;42.674;23.350;2023-07-13T01:00:51;95035.59;;;21.44;100.00
23164;BME280;31429;42.674;23.350;2023-07-13T01:01:53;95030.47;;;21.32;100.00
23164;BME280;31429;42.674;23.350;2023-07-13T01:02:56;95032.50;;;21.28;100.00
23164;BME280;31429;42.674;23.350;2023-07-13T01:03:57;95028.47;;;21.24;100.00
23164;BME280;31429;42.674;23.350;2023-07-13T01:04:58;95024.69;;;21.28;100.00
23164;BME280;31429;42.674;23.350;2023-07-13T01:05:58;95026.34;;;21.40;100.00
23164;BME280;31429;42.674;23.350;2023-07-13T01:06:59;95028.50;;;21.46;100.00
23164;BME280;31429;42.674;23.350;2023-07-13T01:08:01;95030.63;;;21.41;100.00
23164;BME280;31429;42.674;23.350;2023-07-13T01:09:03;95025.66;;;21.38;100.00
23164;BME280;31429;42.674;23.350;2023-07-13T01:10:05;95023.25;;;21.24;100.00
23164;BME280;31429;42.674;23.350;2023-07-13T01:11:06;95024.16;;;21.12;100.00
23164;BME280;31429;42.674;23.350;2023-07-13T01:12:08;95022.94;;;21.05;100.00
23164;BME280;31429;42.674;23.350;2023-07-13T01:13:10;95022.75;;;21.08;100.00
23164;BME280;31429;42.674;23.350;2023-07-13T01:14:11;95026.72;;;21.01;100.00
23164;BME280;31429;42.674;23.350;2023-07-13T01:15:36;95022.56;;;20.98;100.00
23164;BME280;31429;42.674;23.350;2023-07-13T01:16:39;95026.09;;;20.97;100.00
23164;BME280;31429;42.674;23.350;2023-07-13T01:17:40;95031.91;;;21.01;100.00
23164;BME280;31429;42.674;23.350;2023-07-13T01:18:42;95018.81;;;21.02;100.00
23164;BME280;31429;42.674;23.350;2023-07-13T01:19:44;95027.44;;;21.03;100.00
23164;BME280;31429;42.674;23.350;2023-07-13T01:20:54;95018.47;;;21.07;100.00
23164;BME280;31429;42.674;23.350;2023-07-13T01:21:55;95020.63;;;21.13;100.00
23164;BME280;31429;42.674;23.350;2023-07-13T01:22:56;95016.53;;;21.22;100.00
23164;BME280;31429;42.674;23.350;2023-07-13T01:23:56;95021.66;;;21.34;100.00
23164;BME280;31429;42.674;23.350;2023-07-13T01:24:58;95020.22;;;21.41;100.00
23164;BME280;31429;42.674;23.350;2023-07-13T01:25:58;95014.78;;;21.44;100.00
23164;BME280;31429;42.674;23.350;2023-07-13T01:26:59;95017.97;;;21.26;100.00
23164;BME280;31429;42.674;23.350;2023-07-13T01:28:00;95016.63;;;21.20;100.00
23164;BME280;31429;42.674;23.350;2023-07-13T01:29:00;95017.34;;;21.11;100.00
23164;BME280;31429;42.674;23.350;2023-07-13T01:30:04;95011.59;;;21.06;100.00
23164;BME280;31429;42.674;23.350;2023-07-13T01:31:05;95015.47;;;21.00;100.00
23164;BME280;31429;42.674;23.350;2023-07-13T01:32:07;95017.50;;;20.97;100.00
23164;BME280;31429;42.674;23.350;2023-07-13T01:33:08;95019.66;;;21.03;100.00
23164;BME280;31429;42.674;23.350;2023-07-13T01:34:10;95022.63;;;21.09;100.00
23164;BME280;31429;42.674;23.350;2023-07-13T01:35:10;95017.00;;;21.27;100.00
23164;BME280;31429;42.674;23.350;2023-07-13T01:36:14;95016.78;;;21.30;100.00
23164;BME280;31429;42.674;23.350;2023-07-13T01:37:15;95023.63;;;21.31;100.00
23164;BME280;31429;42.674;23.350;2023-07-13T01:38:18;95020.91;;;21.32;100.00
23164;BME280;31429;42.674;23.350;2023-07-13T01:39:19;95021.88;;;21.42;100.00
23164;BME280;31429;42.674;23.350;2023-07-13T01:40:20;95027.34;;;21.50;100.00
23164;BME280;31429;42.674;23.350;2023-07-13T01:41:21;95024.72;;;21.61;100.00
23164;BME280;31429;42.674;23.350;2023-07-13T01:42:21;95022.72;;;21.65;100.00
23164;BME280;31429;42.674;23.350;2023-07-13T01:43:22;95026.50;;;21.61;100.00
23164;BME280;31429;42.674;23.350;2023-07-13T01:44:23;95016.78;;;21.63;100.00
23164;BME280;31429;42.674;23.350;2023-07-13T01:45:24;95022.38;;;21.81;100.00
23164;BME280;31429;42.674;23.350;2023-07-13T01:46:25;95020.28;;;22.08;100.00
23164;BME280;31429;42.674;23.350;2023-07-13T01:47:26;95012.94;;;22.02;100.00
23164;BME280;31429;42.674;23.350;2023-07-13T01:48:28;95015.31;;;21.94;100.00
23164;BME280;31429;42.674;23.350;2023-07-13T01:49:28;95015.66;;;21.89;100.00
23164;BME280;31429;42.674;23.350;2023-07-13T01:50:29;95014.09;;;21.98;100.00
23164;BME280;31429;42.674;23.350;2023-07-13T01:51:31;95016.34;;;21.91;100.00
23164;BME280;31429;42.674;23.350;2023-07-13T01:52:32;95007.00;;;21.89;100.00
23164;BME280;31429;42.674;23.350;2023-07-13T01:53:32;95013.63;;;21.82;100.00
23164;BME280;31429;42.674;23.350;2023-07-13T01:54:33;95014.44;;;21.60;100.00
23164;BME280;31429;42.674;23.350;2023-07-13T01:55:34;95017.84;;;21.38;100.00
23164;BME280;31429;42.674;23.350;2023-07-13T01:56:35;95018.06;;;21.35;100.00
23164;BME280;31429;42.674;23.350;2023-07-13T01:57:36;95012.16;;;21.33;100.00
23164;BME280;31429;42.674;23.350;2023-07-13T01:58:36;95008.63;;;21.34;100.00
23164;BME280;31429;42.674;23.350;2023-07-13T01:59:37;95013.00;;;21.34;100.00
23164;BME280;31429;42.674;23.350;2023-07-13T02:00:38;95012.28;;;21.43;100.00
23164;BME280;31429;42.674;23.350;2023-07-13T02:01:38;95008.28;;;21.39;100.00
23164;BME280;31429;42.674;23.350;2023-07-13T02:02:39;95016.69;;;21.42;100.00
23164;BME280;31429;42.674;23.350;2023-07-13T02:03:40;95017.13;;;21.25;100.00
23164;BME280;31429;42.674;23.350;2023-07-13T02:04:40;95015.84;;;21.07;100.00
23164;BME280;31429;42.674;23.350;2023-07-13T02:05:41;95023.41;;;20.99;100.00
23164;BME280;31429;42.674;23.350;2023-07-13T02:06:43;95026.38;;;21.05;100.00
23164;BME280;31429;42.674;23.350;2023-07-13T02:07:46;95022.94;;;20.94;100.00
23164;BME280;31429;42.674;23.350;2023-07-13T02:08:47;95022.53;;;20.87;100.00
23164;BME280;31429;42.674;23.350;2023-07-13T02:09:48;95024.44;;;20.85;100.00
23164;BME280;31429;42.674;23.350;2023-07-13T02:10:48;95016.03;;;20.82;100.00
23164;BME280;31429;42.674;23.350;2023-07-13T02:11:49;95020.78;;;20.88;100.00
23164;BME280;31429;42.674;23.350;2023-07-13T02:12:50;95016.97;;;20.92;100.00
23164;BME280;31429;42.674;23.350;2023-07-13T02:13:51;95019.72;;;20.90;100.00
23164;BME280;31429;42.674;23.350;2023-07-13T02:14:52;95028.34;;;20.91;100.00
23164;BME280;31429;42.674;23.350;2023-07-13T02:15:53;95029.75;;;20.95;100.00
23164;BME280;31429;42.674;23.350;2023-07-13T02:16:53;95032.22;;;20.85;100.00
23164;BME280;31429;42.674;23.350;2023-07-13T02:17:54;95031.16;;;20.88;100.00
23164;BME280;31429;42.674;23.350;2023-07-13T02:18:54;95032.59;;;20.92;100.00
23164;BME280;31429;42.674;23.350;2023-07-13T02:19:56;95020.88;;;21.10;100.00
23164;BME280;31429;42.674;23.350;2023-07-13T02:20:56;95020.50;;;21.14;100.00
23164;BME280;31429;42.674;23.350;2023-07-13T02:21:58;95025.56;;;21.05;100.00
23164;BME280;31429;42.674;23.350;2023-07-13T02:22:59;95027.91;;;20.97;100.00
23164;BME280;31429;42.674;23.350;2023-07-13T02:24:00;95018.47;;;21.07;100.00
23164;BME280;31429;42.674;23.350;2023-07-13T02:25:01;95020.44;;;21.03;100.00
23164;BME280;31429;42.674;23.350;2023-07-13T02:26:03;95022.53;;;20.87;100.00
23164;BME280;31429;42.674;23.350;2023-07-13T02:27:04;95027.22;;;20.71;100.00
23164;BME280;31429;42.674;23.350;2023-07-13T02:28:05;95028.22;;;20.57;100.00
23164;BME280;31429;42.674;23.350;2023-07-13T02:29:05;95026.31;;;20.59;100.00
23164;BME280;31429;42.674;23.350;2023-07-13T02:30:07;95029.31;;;20.42;100.00
23164;BME280;31429;42.674;23.350;2023-07-13T02:31:09;95033.31;;;20.46;100.00
23164;BME280;31429;42.674;23.350;2023-07-13T02:32:10;95023.81;;;20.58;100.00
23164;BME280;31429;42.674;23.350;2023-07-13T02:33:11;95031.91;;;20.66;100.00
23164;BME280;31429;42.674;23.350;2023-07-13T02:34:11;95029.91;;;20.70;100.00
23164;BME280;31429;42.674;23.350;2023-07-13T02:35:12;95032.06;;;20.76;100.00
23164;BME280;31429;42.674;23.350;2023-07-13T02:36:13;95029.00;;;20.82;100.00
23164;BME280;31429;42.674;23.350;2023-07-13T02:37:17;95032.34;;;20.95;100.00
23164;BME280;31429;42.674;23.350;2023-07-13T02:38:18;95033.63;;;20.89;100.00
23164;BME280;31429;42.674;23.350;2023-07-13T02:39:19;95038.75;;;20.91;100.00
23164;BME280;31429;42.674;23.350;2023-07-13T02:40:20;95043.09;;;20.90;100.00
23164;BME280;31429;42.674;23.350;2023-07-13T02:41:20;95032.50;;;20.70;100.00
23164;BME280;31429;42.674;23.350;2023-07-13T02:42:23;95031.09;;;20.66;100.00
23164;BME280;31429;42.674;23.350;2023-07-13T02:43:23;95028.66;;;20.51;100.00
23164;BME280;31429;42.674;23.350;2023-07-13T02:44:24;95033.00;;;20.51;100.00
23164;BME280;31429;42.674;23.350;2023-07-13T02:45:25;95030.88;;;20.69;100.00
23164;BME280;31429;42.674;23.350;2023-07-13T02:46:25;95030.47;;;20.86;100.00
23164;BME280;31429;42.674;23.350;2023-07-13T02:47:26;95028.16;;;21.05;100.00
23164;BME280;31429;42.674;23.350;2023-07-13T02:48:27;95027.13;;;20.84;100.00
23164;BME280;31429;42.674;23.350;2023-07-13T02:49:27;95022.16;;;20.81;100.00
23164;BME280;31429;42.674;23.350;2023-07-13T02:50:28;95028.56;;;20.88;100.00
23164;BME280;31429;42.674;23.350;2023-07-13T02:51:28;95027.03;;;20.85;100.00
23164;BME280;31429;42.674;23.350;2023-07-13T02:52:30;95029.50;;;20.87;100.00
23164;BME280;31429;42.674;23.350;2023-07-13T02:53:31;95035.53;;;20.87;100.00
23164;BME280;31429;42.674;23.350;2023-07-13T02:54:32;95029.00;;;20.82;100.00
23164;BME280;31429;42.674;23.350;2023-07-13T02:55:32;95026.19;;;20.85;100.00
23164;BME280;31429;42.674;23.350;2023-07-13T02:56:33;95029.97;;;20.92;100.00
23164;BME280;31429;42.674;23.350;2023-07-13T02:57:34;95033.19;;;20.95;100.00
23164;BME280;31429;42.674;23.350;2023-07-13T02:58:35;95040.56;;;20.78;100.00
23164;BME280;31429;42.674;23.350;2023-07-13T02:59:37;95031.78;;;20.68;100.00
23164;BME280;31429;42.674;23.350;2023-07-13T03:00:38;95030.19;;;20.54;100.00
23164;BME280;31429;42.674;23.350;2023-07-13T03:01:41;95035.66;;;20.38;100.00
23164;BME280;31429;42.674;23.350;2023-07-13T03:02:41;95033.50;;;20.32;100.00
23164;BME280;31429;42.674;23.350;2023-07-13T03:03:42;95041.28;;;20.32;100.00
23164;BME280;31429;42.674;23.350;2023-07-13T03:04:43;95045.88;;;20.29;100.00
23164;BME280;31429;42.674;23.350;2023-07-13T03:05:44;95043.06;;;20.32;100.00
23164;BME280;31429;42.674;23.350;2023-07-13T03:06:45;95042.84;;;20.35;100.00
23164;BME280;31429;42.674;23.350;2023-07-13T03:07:48;95043.28;;;20.29;100.00
23164;BME280;31429;42.674;23.350;2023-07-13T03:08:49;95034.75;;;20.27;100.00
23164;BME280;31429;42.674;23.350;2023-07-13T03:09:54;95038.91;;;20.29;100.00
23164;BME280;31429;42.674;23.350;2023-07-13T03:10:59;95044.84;;;20.31;100.00
23164;BME280;31429;42.674;23.350;2023-07-13T03:12:00;95041.31;;;20.20;100.00
23164;BME280;31429;42.674;23.350;2023-07-13T03:13:01;95032.28;;;20.13;100.00
23164;BME280;31429;42.674;23.350;2023-07-13T03:14:01;95038.91;;;20.17;100.00
23164;BME280;31429;42.674;23.350;2023-07-13T03:15:02;95044.00;;;20.18;100.00
23164;BME280;31429;42.674;23.350;2023-07-13T03:16:04;95046.22;;;20.48;100.00
23164;BME280;31429;42.674;23.350;2023-07-13T03:17:05;95034.38;;;20.44;100.00
23164;BME280;31429;42.674;23.350;2023-07-13T03:18:05;95038.88;;;20.42;100.00
23164;BME280;31429;42.674;23.350;2023-07-13T03:19:06;95045.38;;;20.47;100.00
23164;BME280;31429;42.674;23.350;2023-07-13T03:20:07;95042.69;;;20.49;100.00
23164;BME280;31429;42.674;23.350;2023-07-13T03:21:08;95043.41;;;20.51;100.00
23164;BME280;31429;42.674;23.350;2023-07-13T03:22:09;95046.66;;;20.42;100.00
23164;BME280;31429;42.674;23.350;2023-07-13T03:23:11;95047.72;;;20.39;100.00
23164;BME280;31429;42.674;23.350;2023-07-13T03:24:11;95041.34;;;20.43;100.00
23164;BME280;31429;42.674;23.350;2023-07-13T03:25:12;95044.69;;;20.45;100.00
23164;BME280;31429;42.674;23.350;2023-07-13T03:26:15;95034.91;;;20.49;100.00
23164;BME280;31429;42.674;23.350;2023-07-13T03:27:17;95041.09;;;20.59;100.00
23164;BME280;31429;42.674;23.350;2023-07-13T03:28:17;95046.28;;;20.59;100.00
23164;BME280;31429;42.674;23.350;2023-07-13T03:29:18;95040.28;;;20.70;100.00
23164;BME280;31429;42.674;23.350;2023-07-13T03:30:19;95043.34;;;20.63;100.00
23164;BME280;31429;42.674;23.350;2023-07-13T03:31:21;95045.31;;;20.36;100.00
23164;BME280;31429;42.674;23.350;2023-07-13T03:32:22;95041.75;;;20.26;100.00
23164;BME280;31429;42.674;23.350;2023-07-13T03:33:23;95046.50;;;20.20;100.00
23164;BME280;31429;42.674;23.350;2023-07-13T03:34:23;95045.03;;;20.16;100.00
23164;BME280;31429;42.674;23.350;2023-07-13T03:35:24;95045.97;;;20.27;100.00
23164;BME280;31429;42.674;23.350;2023-07-13T03:36:26;95047.00;;;20.37;100.00
23164;BME280;31429;42.674;23.350;2023-07-13T03:37:27;95051.19;;;20.51;100.00
23164;BME280;31429;42.674;23.350;2023-07-13T03:38:29;95046.06;;;20.62;100.00
23164;BME280;31429;42.674;23.350;2023-07-13T03:39:30;95053.06;;;20.73;100.00
23164;BME280;31429;42.674;23.350;2023-07-13T03:40:31;95052.28;;;20.83;100.00
23164;BME280;31429;42.674;23.350;2023-07-13T03:41:32;95055.22;;;20.79;100.00
23164;BME280;31429;42.674;23.350;2023-07-13T03:42:33;95051.75;;;20.67;100.00
23164;BME280;31429;42.674;23.350;2023-07-13T03:43:33;95050.19;;;20.64;100.00
23164;BME280;31429;42.674;23.350;2023-07-13T03:44:34;95050.53;;;20.60;100.00
23164;BME280;31429;42.674;23.350;2023-07-13T03:45:37;95051.34;;;20.60;100.00
23164;BME280;31429;42.674;23.350;2023-07-13T03:46:38;95047.03;;;20.72;100.00
23164;BME280;31429;42.674;23.350;2023-07-13T03:47:39;95047.44;;;20.79;100.00
23164;BME280;31429;42.674;23.350;2023-07-13T03:48:40;95045.31;;;20.84;100.00
23164;BME280;31429;42.674;23.350;2023-07-13T03:49:43;95043.63;;;20.72;100.00
23164;BME280;31429;42.674;23.350;2023-07-13T03:50:43;95049.75;;;20.71;100.00
23164;BME280;31429;42.674;23.350;2023-07-13T03:51:44;95041.97;;;20.71;100.00
23164;BME280;31429;42.674;23.350;2023-07-13T03:52:44;95039.72;;;20.66;100.00
23164;BME280;31429;42.674;23.350;2023-07-13T03:53:47;95040.47;;;20.55;100.00
23164;BME280;31429;42.674;23.350;2023-07-13T03:54:48;95048.38;;;20.54;100.00
23164;BME280;31429;42.674;23.350;2023-07-13T03:55:49;95044.25;;;20.51;100.00
23164;BME280;31429;42.674;23.350;2023-07-13T03:56:49;95044.03;;;20.54;100.00
23164;BME280;31429;42.674;23.350;2023-07-13T03:57:54;95044.72;;;20.56;100.00
23164;BME280;31429;42.674;23.350;2023-07-13T03:58:57;95046.69;;;20.66;100.00
23164;BME280;31429;42.674;23.350;2023-07-13T03:59:58;95033.25;;;20.72;100.00
23164;BME280;31429;42.674;23.350;2023-07-13T04:00:59;95044.00;;;20.78;100.00
23164;BME280;31429;42.674;23.350;2023-07-13T04:02:01;95042.44;;;20.76;100.00
23164;BME280;31429;42.674;23.350;2023-07-13T04:03:01;95045.75;;;20.78;100.00
23164;BME280;31429;42.674;23.350;2023-07-13T04:04:02;95048.66;;;20.86;100.00
23164;BME280;31429;42.674;23.350;2023-07-13T04:05:03;95050.06;;;20.90;100.00
23164;BME280;31429;42.674;23.350;2023-07-13T04:06:06;95043.19;;;21.12;100.00
23164;BME280;31429;42.674;23.350;2023-07-13T04:07:07;95044.91;;;21.36;100.00
23164;BME280;31429;42.674;23.350;2023-07-13T04:08:08;95046.09;;;21.32;100.00
23164;BME280;31429;42.674;23.350;2023-07-13T04:09:10;95043.09;;;21.14;100.00
23164;BME280;31429;42.674;23.350;2023-07-13T04:10:11;95040.81;;;21.09;100.00
23164;BME280;31429;42.674;23.350;2023-07-13T04:11:11;95042.75;;;21.18;100.00
23164;BME280;31429;42.674;23.350;2023-07-13T04:12:12;95039.34;;;21.29;100.00
23164;BME280;31429;42.674;23.350;2023-07-13T04:13:13;95038.66;;;21.49;100.00
23164;BME280;31429;42.674;23.350;2023-07-13T04:14:15;95037.50;;;21.64;100.00
23164;BME280;31429;42.674;23.350;2023-07-13T04:15:16;95039.03;;;21.56;100.00
23164;BME280;31429;42.674;23.350;2023-07-13T04:16:17;95046.72;;;21.46;100.00
23164;BME280;31429;42.674;23.350;2023-07-13T04:17:18;95038.66;;;21.49;100.00
23164;BME280;31429;42.674;23.350;2023-07-13T04:18:19;95046.47;;;21.60;100.00
23164;BME280;31429;42.674;23.350;2023-07-13T04:19:20;95051.00;;;21.69;100.00
23164;BME280;31429;42.674;23.350;2023-07-13T04:20:20;95052.31;;;21.86;100.00
23164;BME280;31429;42.674;23.350;2023-07-13T04:21:22;95045.00;;;22.02;100.00
23164;BME280;31429;42.674;23.350;2023-07-13T04:22:22;95052.94;;;21.90;100.00
23164;BME280;31429;42.674;23.350;2023-07-13T04:23:23;95059.63;;;21.70;100.00
23164;BME280;31429;42.674;23.350;2023-07-13T04:24:25;95053.22;;;21.63;100.00
23164;BME280;31429;42.674;23.350;2023-07-13T04:25:26;95059.03;;;21.66;100.00
23164;BME280;31429;42.674;23.350;2023-07-13T04:26:27;95060.47;;;21.82;100.00
23164;BME280;31429;42.674;23.350;2023-07-13T04:27:27;95061.81;;;21.98;100.00
23164;BME280;31429;42.674;23.350;2023-07-13T04:28:29;95065.72;;;21.93;100.00
23164;BME280;31429;42.674;23.350;2023-07-13T04:29:29;95067.09;;;21.86;100.00
23164;BME280;31429;42.674;23.350;2023-07-13T04:30:30;95065.09;;;21.78;100.00
23164;BME280;31429;42.674;23.350;2023-07-13T04:31:31;95062.34;;;21.68;100.00
23164;BME280;31429;42.674;23.350;2023-07-13T04:32:32;95063.91;;;21.82;100.00
23164;BME280;31429;42.674;23.350;2023-07-13T04:33:33;95057.00;;;22.59;100.00
23164;BME280;31429;42.674;23.350;2023-07-13T04:34:34;95058.59;;;22.82;100.00
23164;BME280;31429;42.674;23.350;2023-07-13T04:35:35;95066.97;;;23.49;100.00
23164;BME280;31429;42.674;23.350;2023-07-13T04:36:35;95057.44;;;23.38;100.00
23164;BME280;31429;42.674;23.350;2023-07-13T04:37:37;95058.91;;;23.20;100.00
23164;BME280;31429;42.674;23.350;2023-07-13T04:38:38;95060.25;;;23.15;100.00
23164;BME280;31429;42.674;23.350;2023-07-13T04:39:40;95068.66;;;22.86;100.00
23164;BME280;31429;42.674;23.350;2023-07-13T04:40:42;95067.56;;;22.46;100.00
23164;BME280;31429;42.674;23.350;2023-07-13T04:41:43;95073.28;;;22.07;100.00
23164;BME280;31429;42.674;23.350;2023-07-13T04:42:44;95058.13;;;21.90;100.00
23164;BME280;31429;42.674;23.350;2023-07-13T04:43:45;95073.53;;;21.93;100.00
23164;BME280;31429;42.674;23.350;2023-07-13T04:44:48;95061.88;;;22.41;100.00
23164;BME280;31429;42.674;23.350;2023-07-13T04:45:48;95061.47;;;22.57;100.00
23164;BME280;31429;42.674;23.350;2023-07-13T04:46:49;95064.91;;;22.57;100.00
23164;BME280;31429;42.674;23.350;2023-07-13T04:47:49;95065.41;;;22.51;100.00
23164;BME280;31429;42.674;23.350;2023-07-13T04:48:50;95079.66;;;22.47;100.00
23164;BME280;31429;42.674;23.350;2023-07-13T04:49:53;95068.97;;;22.50;100.00
23164;BME280;31429;42.674;23.350;2023-07-13T04:50:55;95076.78;;;22.61;100.00
23164;BME280;31429;42.674;23.350;2023-07-13T04:51:56;95075.34;;;22.57;100.00
23164;BME280;31429;42.674;23.350;2023-07-13T04:52:56;95066.03;;;22.44;100.00
23164;BME280;31429;42.674;23.350;2023-07-13T04:53:57;95071.28;;;22.21;100.00
23164;BME280;31429;42.674;23.350;2023-07-13T04:54:59;95081.47;;;22.02;100.00
23164;BME280;31429;42.674;23.350;2023-07-13T04:56:00;95085.31;;;21.86;100.00
23164;BME280;31429;42.674;23.350;2023-07-13T04:57:02;95073.59;;;21.80;100.00
23164;BME280;31429;42.674;23.350;2023-07-13T04:58:03;95083.31;;;21.78;100.00
23164;BME280;31429;42.674;23.350;2023-07-13T04:59:04;95081.69;;;22.10;100.00
23164;BME280;31429;42.674;23.350;2023-07-13T05:00:05;95078.72;;;22.91;100.00
23164;BME280;31429;42.674;23.350;2023-07-13T05:01:07;95080.81;;;22.97;100.00
23164;BME280;31429;42.674;23.350;2023-07-13T05:02:10;95089.31;;;22.78;100.00
23164;BME280;31429;42.674;23.350;2023-07-13T05:03:10;95082.88;;;22.82;100.00
23164;BME280;31429;42.674;23.350;2023-07-13T05:04:11;95085.59;;;22.92;100.00
23164;BME280;31429;42.674;23.350;2023-07-13T05:05:12;95079.94;;;22.87;100.00
23164;BME280;31429;42.674;23.350;2023-07-13T05:06:12;95078.13;;;22.87;100.00
23164;BME280;31429;42.674;23.350;2023-07-13T05:07:14;95079.22;;;23.37;100.00
23164;BME280;31429;42.674;23.350;2023-07-13T05:08:14;95078.09;;;23.92;100.00
23164;BME280;31429;42.674;23.350;2023-07-13T05:09:15;95081.09;;;24.18;100.00
23164;BME280;31429;42.674;23.350;2023-07-13T05:10:17;95075.72;;;24.69;100.00
23164;BME280;31429;42.674;23.350;2023-07-13T05:11:18;95081.09;;;24.68;100.00
23164;BME280;31429;42.674;23.350;2023-07-13T05:12:19;95082.16;;;25.05;100.00
23164;BME280;31429;42.674;23.350;2023-07-13T05:13:20;95082.84;;;25.36;100.00
23164;BME280;31429;42.674;23.350;2023-07-13T05:14:20;95082.84;;;25.45;100.00
23164;BME280;31429;42.674;23.350;2023-07-13T05:15:22;95087.25;;;25.54;100.00
23164;BME280;31429;42.674;23.350;2023-07-13T05:16:23;95092.44;;;25.83;100.00
23164;BME280;31429;42.674;23.350;2023-07-13T05:17:23;95093.47;;;26.00;100.00
23164;BME280;31429;42.674;23.350;2023-07-13T05:18:24;95099.00;;;26.16;100.00
23164;BME280;31429;42.674;23.350;2023-07-13T05:19:25;95099.84;;;25.97;100.00